sensor_id;sensor_type;location;lat;lon;timestamp;P1;durP1;ratioP1;P2;durP2;ratioP2
78489;SDS011;67776;52.012;4.736;2023-04-06T00:00:31;26.45;;;10.77;;
78489;SDS011;67776;52.012;4.736;2023-04-06T00:02:56;24.33;;;10.17;;
78489;SDS011;67776;52.012;4.736;2023-04-06T00:05:21;19.93;;;9.63;;
78489;SDS011;67776;52.012;4.736;2023-04-06T00:07:47;21.30;;;9.57;;
78489;SDS011;67776;52.012;4.736;2023-04-06T00:10:15;20.35;;;10.35;;
78489;SDS011;67776;52.012;4.736;2023-04-06T00:12:43;21.50;;;10.27;;
78489;SDS011;67776;52.012;4.736;2023-04-06T00:15:09;20.35;;;9.65;;
78489;SDS011;67776;52.012;4.736;2023-04-06T00:17:34;19.67;;;9.70;;
78489;SDS011;67776;52.012;4.736;2023-04-06T00:20:00;19.63;;;9.50;;
78489;SDS011;67776;52.012;4.736;2023-04-06T00:22:25;23.27;;;9.77;;
78489;SDS011;67776;52.012;4.736;2023-04-06T00:24:50;19.30;;;8.87;;
78489;SDS011;67776;52.012;4.736;2023-04-06T00:27:16;21.87;;;9.37;;
78489;SDS011;67776;52.012;4.736;2023-04-06T00:29:41;18.13;;;8.83;;
78489;SDS011;67776;52.012;4.736;2023-04-06T00:34:32;20.17;;;8.50;;
78489;SDS011;67776;52.012;4.736;2023-04-06T00:36:57;20.00;;;9.20;;
78489;SDS011;67776;52.012;4.736;2023-04-06T00:39:22;18.00;;;8.90;;
78489;SDS011;67776;52.012;4.736;2023-04-06T00:41:51;17.07;;;8.23;;
78489;SDS011;67776;52.012;4.736;2023-04-06T00:44:17;18.30;;;8.70;;
78489;SDS011;67776;52.012;4.736;2023-04-06T00:46:43;20.63;;;10.00;;
78489;SDS011;67776;52.012;4.736;2023-04-06T00:49:09;17.60;;;8.27;;
78489;SDS011;67776;52.012;4.736;2023-04-06T00:51:34;20.40;;;9.50;;
78489;SDS011;67776;52.012;4.736;2023-04-06T00:54:01;18.45;;;8.77;;
78489;SDS011;67776;52.012;4.736;2023-04-06T00:56:26;19.73;;;8.73;;
78489;SDS011;67776;52.012;4.736;2023-04-06T00:58:55;18.30;;;8.70;;
78489;SDS011;67776;52.012;4.736;2023-04-06T01:01:20;20.53;;;8.50;;
78489;SDS011;67776;52.012;4.736;2023-04-06T01:03:46;18.20;;;8.55;;
78489;SDS011;67776;52.012;4.736;2023-04-06T01:06:14;19.33;;;8.60;;
78489;SDS011;67776;52.012;4.736;2023-04-06T01:08:39;19.90;;;8.98;;
78489;SDS011;67776;52.012;4.736;2023-04-06T01:11:05;17.87;;;8.80;;
78489;SDS011;67776;52.012;4.736;2023-04-06T01:13:30;20.07;;;9.13;;
78489;SDS011;67776;52.012;4.736;2023-04-06T01:15:55;18.93;;;9.50;;
78489;SDS011;67776;52.012;4.736;2023-04-06T01:18:27;17.48;;;8.85;;
78489;SDS011;67776;52.012;4.736;2023-04-06T01:20:53;18.53;;;8.23;;
78489;SDS011;67776;52.012;4.736;2023-04-06T01:23:22;18.85;;;9.55;;
78489;SDS011;67776;52.012;4.736;2023-04-06T01:25:47;16.90;;;8.73;;
78489;SDS011;67776;52.012;4.736;2023-04-06T01:28:13;17.15;;;8.60;;
78489;SDS011;67776;52.012;4.736;2023-04-06T01:30:38;18.13;;;9.23;;
78489;SDS011;67776;52.012;4.736;2023-04-06T01:33:03;17.63;;;9.03;;
78489;SDS011;67776;52.012;4.736;2023-04-06T01:35:29;20.33;;;9.50;;
78489;SDS011;67776;52.012;4.736;2023-04-06T01:37:56;18.52;;;9.27;;
78489;SDS011;67776;52.012;4.736;2023-04-06T01:40:22;20.85;;;10.02;;
78489;SDS011;67776;52.012;4.736;2023-04-06T01:42:47;17.37;;;9.17;;
78489;SDS011;67776;52.012;4.736;2023-04-06T01:45:12;19.73;;;9.57;;
78489;SDS011;67776;52.012;4.736;2023-04-06T01:47:39;18.70;;;9.63;;
78489;SDS011;67776;52.012;4.736;2023-04-06T01:50:05;17.33;;;9.27;;
78489;SDS011;67776;52.012;4.736;2023-04-06T01:52:32;19.15;;;9.75;;
78489;SDS011;67776;52.012;4.736;2023-04-06T01:54:58;18.45;;;9.25;;
78489;SDS011;67776;52.012;4.736;2023-04-06T01:57:23;23.17;;;10.37;;
78489;SDS011;67776;52.012;4.736;2023-04-06T01:59:50;18.05;;;9.60;;
78489;SDS011;67776;52.012;4.736;2023-04-06T02:02:16;22.40;;;9.67;;
78489;SDS011;67776;52.012;4.736;2023-04-06T02:04:41;21.92;;;10.02;;
78489;SDS011;67776;52.012;4.736;2023-04-06T02:07:08;20.00;;;9.87;;
78489;SDS011;67776;52.012;4.736;2023-04-06T02:09:34;19.85;;;9.43;;
78489;SDS011;67776;52.012;4.736;2023-04-06T02:12:00;18.13;;;9.68;;
78489;SDS011;67776;52.012;4.736;2023-04-06T02:14:26;20.67;;;10.00;;
78489;SDS011;67776;52.012;4.736;2023-04-06T02:16:52;22.13;;;10.35;;
78489;SDS011;67776;52.012;4.736;2023-04-06T02:19:17;20.40;;;10.27;;
78489;SDS011;67776;52.012;4.736;2023-04-06T02:21:43;20.47;;;9.87;;
78489;SDS011;67776;52.012;4.736;2023-04-06T02:24:08;22.43;;;10.27;;
78489;SDS011;67776;52.012;4.736;2023-04-06T02:26:33;20.93;;;10.30;;
78489;SDS011;67776;52.012;4.736;2023-04-06T02:28:59;20.55;;;10.25;;
78489;SDS011;67776;52.012;4.736;2023-04-06T02:31:26;21.35;;;10.70;;
78489;SDS011;67776;52.012;4.736;2023-04-06T02:33:52;21.80;;;11.00;;
78489;SDS011;67776;52.012;4.736;2023-04-06T02:36:17;20.63;;;10.40;;
78489;SDS011;67776;52.012;4.736;2023-04-06T02:38:42;21.73;;;10.20;;
78489;SDS011;67776;52.012;4.736;2023-04-06T02:41:08;21.25;;;10.73;;
78489;SDS011;67776;52.012;4.736;2023-04-06T02:43:33;20.67;;;10.00;;
78489;SDS011;67776;52.012;4.736;2023-04-06T02:45:59;22.13;;;10.18;;
78489;SDS011;67776;52.012;4.736;2023-04-06T02:48:25;21.20;;;10.53;;
78489;SDS011;67776;52.012;4.736;2023-04-06T02:50:50;21.50;;;10.50;;
78489;SDS011;67776;52.012;4.736;2023-04-06T02:53:15;20.87;;;11.00;;
78489;SDS011;67776;52.012;4.736;2023-04-06T02:55:42;22.98;;;10.95;;
78489;SDS011;67776;52.012;4.736;2023-04-06T02:58:10;21.08;;;10.63;;
78489;SDS011;67776;52.012;4.736;2023-04-06T03:00:37;22.48;;;10.32;;
78489;SDS011;67776;52.012;4.736;2023-04-06T03:03:05;22.27;;;11.30;;
78489;SDS011;67776;52.012;4.736;2023-04-06T03:05:30;20.97;;;10.47;;
78489;SDS011;67776;52.012;4.736;2023-04-06T03:08:05;21.55;;;10.80;;
78489;SDS011;67776;52.012;4.736;2023-04-06T03:10:30;20.63;;;11.13;;
78489;SDS011;67776;52.012;4.736;2023-04-06T03:12:56;20.02;;;10.85;;
78489;SDS011;67776;52.012;4.736;2023-04-06T03:15:22;23.35;;;11.68;;
78489;SDS011;67776;52.012;4.736;2023-04-06T03:17:47;21.47;;;12.07;;
78489;SDS011;67776;52.012;4.736;2023-04-06T03:20:13;20.07;;;10.90;;
78489;SDS011;67776;52.012;4.736;2023-04-06T03:22:40;22.80;;;11.65;;
78489;SDS011;67776;52.012;4.736;2023-04-06T03:25:06;20.73;;;11.47;;
78489;SDS011;67776;52.012;4.736;2023-04-06T03:27:31;24.23;;;11.70;;
78489;SDS011;67776;52.012;4.736;2023-04-06T03:29:57;21.88;;;11.63;;
78489;SDS011;67776;52.012;4.736;2023-04-06T03:32:23;23.20;;;11.50;;
78489;SDS011;67776;52.012;4.736;2023-04-06T03:34:48;24.47;;;12.00;;
78489;SDS011;67776;52.012;4.736;2023-04-06T03:37:13;24.37;;;11.43;;
78489;SDS011;67776;52.012;4.736;2023-04-06T03:39:39;22.55;;;11.70;;
78489;SDS011;67776;52.012;4.736;2023-04-06T03:42:05;24.03;;;11.90;;
78489;SDS011;67776;52.012;4.736;2023-04-06T03:44:30;23.00;;;12.10;;
78489;SDS011;67776;52.012;4.736;2023-04-06T03:46:56;24.80;;;11.97;;
78489;SDS011;67776;52.012;4.736;2023-04-06T03:49:22;24.43;;;11.93;;
78489;SDS011;67776;52.012;4.736;2023-04-06T03:51:47;21.35;;;11.63;;
78489;SDS011;67776;52.012;4.736;2023-04-06T03:54:12;23.27;;;12.20;;
78489;SDS011;67776;52.012;4.736;2023-04-06T03:56:38;23.37;;;12.70;;
78489;SDS011;67776;52.012;4.736;2023-04-06T03:59:03;23.70;;;12.30;;
78489;SDS011;67776;52.012;4.736;2023-04-06T04:01:30;26.23;;;12.77;;
78489;SDS011;67776;52.012;4.736;2023-04-06T04:03:56;22.35;;;11.75;;
78489;SDS011;67776;52.012;4.736;2023-04-06T04:06:21;24.33;;;12.27;;
78489;SDS011;67776;52.012;4.736;2023-04-06T04:08:47;25.80;;;13.70;;
78489;SDS011;67776;52.012;4.736;2023-04-06T04:11:18;25.10;;;13.20;;
78489;SDS011;67776;52.012;4.736;2023-04-06T04:13:43;25.77;;;12.23;;
78489;SDS011;67776;52.012;4.736;2023-04-06T04:16:09;23.10;;;12.73;;
78489;SDS011;67776;52.012;4.736;2023-04-06T04:18:34;25.33;;;13.00;;
78489;SDS011;67776;52.012;4.736;2023-04-06T04:21:00;27.37;;;12.43;;
78489;SDS011;67776;52.012;4.736;2023-04-06T04:23:25;25.33;;;12.80;;
78489;SDS011;67776;52.012;4.736;2023-04-06T04:25:50;23.17;;;13.00;;
78489;SDS011;67776;52.012;4.736;2023-04-06T04:28:16;24.73;;;12.73;;
78489;SDS011;67776;52.012;4.736;2023-04-06T04:30:41;24.53;;;13.43;;
78489;SDS011;67776;52.012;4.736;2023-04-06T04:33:07;24.85;;;13.05;;
78489;SDS011;67776;52.012;4.736;2023-04-06T04:35:32;28.57;;;13.53;;
78489;SDS011;67776;52.012;4.736;2023-04-06T04:37:57;27.13;;;13.70;;
78489;SDS011;67776;52.012;4.736;2023-04-06T04:40:23;26.73;;;12.93;;
78489;SDS011;67776;52.012;4.736;2023-04-06T04:42:57;24.00;;;12.90;;
78489;SDS011;67776;52.012;4.736;2023-04-06T04:45:22;27.70;;;13.83;;
78489;SDS011;67776;52.012;4.736;2023-04-06T04:47:47;25.73;;;13.83;;
78489;SDS011;67776;52.012;4.736;2023-04-06T04:50:13;26.27;;;13.60;;
78489;SDS011;67776;52.012;4.736;2023-04-06T04:52:38;24.87;;;13.10;;
78489;SDS011;67776;52.012;4.736;2023-04-06T04:55:04;24.65;;;13.45;;
78489;SDS011;67776;52.012;4.736;2023-04-06T04:57:50;27.63;;;13.47;;
78489;SDS011;67776;52.012;4.736;2023-04-06T05:00:19;26.05;;;13.07;;
78489;SDS011;67776;52.012;4.736;2023-04-06T05:02:45;26.88;;;13.95;;
78489;SDS011;67776;52.012;4.736;2023-04-06T05:05:11;27.90;;;14.20;;
78489;SDS011;67776;52.012;4.736;2023-04-06T05:07:37;28.08;;;14.00;;
78489;SDS011;67776;52.012;4.736;2023-04-06T05:10:05;29.00;;;14.50;;
78489;SDS011;67776;52.012;4.736;2023-04-06T05:12:30;28.17;;;13.38;;
78489;SDS011;67776;52.012;4.736;2023-04-06T05:14:56;27.77;;;14.37;;
78489;SDS011;67776;52.012;4.736;2023-04-06T05:17:21;29.13;;;14.97;;
78489;SDS011;67776;52.012;4.736;2023-04-06T05:19:48;27.97;;;13.60;;
78489;SDS011;67776;52.012;4.736;2023-04-06T05:22:16;29.33;;;13.88;;
78489;SDS011;67776;52.012;4.736;2023-04-06T05:24:42;28.13;;;14.00;;
78489;SDS011;67776;52.012;4.736;2023-04-06T05:27:08;26.75;;;13.80;;
78489;SDS011;67776;52.012;4.736;2023-04-06T05:29:34;29.97;;;14.27;;
78489;SDS011;67776;52.012;4.736;2023-04-06T05:31:59;29.50;;;14.57;;
78489;SDS011;67776;52.012;4.736;2023-04-06T05:34:24;26.60;;;13.97;;
78489;SDS011;67776;52.012;4.736;2023-04-06T05:36:50;33.10;;;14.70;;
78489;SDS011;67776;52.012;4.736;2023-04-06T05:39:16;26.30;;;13.05;;
78489;SDS011;67776;52.012;4.736;2023-04-06T05:41:41;27.53;;;13.90;;
78489;SDS011;67776;52.012;4.736;2023-04-06T05:44:09;25.87;;;13.67;;
78489;SDS011;67776;52.012;4.736;2023-04-06T05:46:38;30.85;;;13.50;;
78489;SDS011;67776;52.012;4.736;2023-04-06T05:49:03;27.47;;;13.83;;
78489;SDS011;67776;52.012;4.736;2023-04-06T05:51:28;28.97;;;13.50;;
78489;SDS011;67776;52.012;4.736;2023-04-06T05:53:56;30.43;;;14.13;;
78489;SDS011;67776;52.012;4.736;2023-04-06T05:56:22;28.42;;;14.05;;
78489;SDS011;67776;52.012;4.736;2023-04-06T05:58:51;28.02;;;13.90;;
78489;SDS011;67776;52.012;4.736;2023-04-06T06:01:16;27.42;;;13.30;;
78489;SDS011;67776;52.012;4.736;2023-04-06T06:03:42;24.13;;;12.80;;
78489;SDS011;67776;52.012;4.736;2023-04-06T06:06:07;25.23;;;13.33;;
78489;SDS011;67776;52.012;4.736;2023-04-06T06:08:33;36.27;;;14.63;;
78489;SDS011;67776;52.012;4.736;2023-04-06T06:10:58;28.48;;;14.27;;
78489;SDS011;67776;52.012;4.736;2023-04-06T06:13:23;31.47;;;14.43;;
78489;SDS011;67776;52.012;4.736;2023-04-06T06:15:49;28.30;;;13.10;;
78489;SDS011;67776;52.012;4.736;2023-04-06T06:18:15;25.70;;;13.85;;
78489;SDS011;67776;52.012;4.736;2023-04-06T06:20:41;27.37;;;13.47;;
78489;SDS011;67776;52.012;4.736;2023-04-06T06:23:07;27.05;;;13.98;;
78489;SDS011;67776;52.012;4.736;2023-04-06T06:25:34;27.92;;;14.50;;
78489;SDS011;67776;52.012;4.736;2023-04-06T06:27:59;25.57;;;13.23;;
78489;SDS011;67776;52.012;4.736;2023-04-06T06:30:27;25.90;;;13.37;;
78489;SDS011;67776;52.012;4.736;2023-04-06T06:32:53;27.48;;;13.57;;
78489;SDS011;67776;52.012;4.736;2023-04-06T06:35:18;27.77;;;14.03;;
78489;SDS011;67776;52.012;4.736;2023-04-06T06:37:43;28.20;;;14.53;;
78489;SDS011;67776;52.012;4.736;2023-04-06T06:40:11;30.67;;;14.48;;
78489;SDS011;67776;52.012;4.736;2023-04-06T06:42:38;29.17;;;15.25;;
78489;SDS011;67776;52.012;4.736;2023-04-06T06:45:04;29.20;;;14.00;;
78489;SDS011;67776;52.012;4.736;2023-04-06T06:47:30;29.88;;;14.35;;
78489;SDS011;67776;52.012;4.736;2023-04-06T06:49:55;27.87;;;13.77;;
78489;SDS011;67776;52.012;4.736;2023-04-06T06:52:24;30.50;;;13.60;;
78489;SDS011;67776;52.012;4.736;2023-04-06T06:54:49;30.35;;;14.65;;
78489;SDS011;67776;52.012;4.736;2023-04-06T06:57:16;29.77;;;14.50;;
78489;SDS011;67776;52.012;4.736;2023-04-06T06:59:41;31.15;;;14.38;;
78489;SDS011;67776;52.012;4.736;2023-04-06T07:02:07;30.23;;;13.50;;
78489;SDS011;67776;52.012;4.736;2023-04-06T07:04:35;27.63;;;14.10;;
78489;SDS011;67776;52.012;4.736;2023-04-06T07:07:00;24.98;;;13.20;;
78489;SDS011;67776;52.012;4.736;2023-04-06T07:09:28;28.65;;;14.25;;
78489;SDS011;67776;52.012;4.736;2023-04-06T07:11:54;29.77;;;14.60;;
78489;SDS011;67776;52.012;4.736;2023-04-06T07:14:21;29.48;;;14.25;;
78489;SDS011;67776;52.012;4.736;2023-04-06T07:16:46;27.63;;;13.93;;
78489;SDS011;67776;52.012;4.736;2023-04-06T07:19:13;30.35;;;14.65;;
78489;SDS011;67776;52.012;4.736;2023-04-06T07:21:46;27.37;;;13.67;;
78489;SDS011;67776;52.012;4.736;2023-04-06T07:24:12;31.60;;;14.45;;
78489;SDS011;67776;52.012;4.736;2023-04-06T07:26:37;31.37;;;14.13;;
78489;SDS011;67776;52.012;4.736;2023-04-06T07:29:02;29.40;;;14.55;;
78489;SDS011;67776;52.012;4.736;2023-04-06T07:31:28;27.07;;;14.23;;
78489;SDS011;67776;52.012;4.736;2023-04-06T07:33:53;27.20;;;13.57;;
78489;SDS011;67776;52.012;4.736;2023-04-06T07:36:21;32.00;;;14.30;;
78489;SDS011;67776;52.012;4.736;2023-04-06T07:38:46;28.88;;;14.88;;
78489;SDS011;67776;52.012;4.736;2023-04-06T07:41:20;31.03;;;15.27;;
78489;SDS011;67776;52.012;4.736;2023-04-06T07:43:46;30.30;;;14.85;;
78489;SDS011;67776;52.012;4.736;2023-04-06T07:46:14;31.07;;;15.00;;
78489;SDS011;67776;52.012;4.736;2023-04-06T07:48:43;31.98;;;15.77;;
78489;SDS011;67776;52.012;4.736;2023-04-06T08:00:32;32.05;;;16.55;;
78489;SDS011;67776;52.012;4.736;2023-04-06T08:05:50;34.13;;;17.00;;
78489;SDS011;67776;52.012;4.736;2023-04-06T08:08:16;33.70;;;17.23;;
78489;SDS011;67776;52.012;4.736;2023-04-06T08:10:41;31.58;;;16.55;;
78489;SDS011;67776;52.012;4.736;2023-04-06T08:13:07;36.23;;;17.87;;
78489;SDS011;67776;52.012;4.736;2023-04-06T08:15:33;32.92;;;16.73;;
78489;SDS011;67776;52.012;4.736;2023-04-06T08:17:58;32.43;;;16.87;;
78489;SDS011;67776;52.012;4.736;2023-04-06T08:20:24;31.37;;;16.93;;
78489;SDS011;67776;52.012;4.736;2023-04-06T08:22:49;29.83;;;16.37;;
78489;SDS011;67776;52.012;4.736;2023-04-06T08:25:15;32.75;;;16.52;;
78489;SDS011;67776;52.012;4.736;2023-04-06T08:27:40;32.23;;;16.53;;
78489;SDS011;67776;52.012;4.736;2023-04-06T08:30:05;29.37;;;16.50;;
78489;SDS011;67776;52.012;4.736;2023-04-06T08:32:31;30.27;;;16.70;;
78489;SDS011;67776;52.012;4.736;2023-04-06T08:34:56;35.20;;;17.30;;
78489;SDS011;67776;52.012;4.736;2023-04-06T08:37:24;34.27;;;17.27;;
78489;SDS011;67776;52.012;4.736;2023-04-06T08:39:50;33.00;;;17.23;;
78489;SDS011;67776;52.012;4.736;2023-04-06T08:42:19;30.52;;;17.05;;
78489;SDS011;67776;52.012;4.736;2023-04-06T08:44:45;30.97;;;16.67;;
78489;SDS011;67776;52.012;4.736;2023-04-06T08:47:14;36.60;;;17.90;;
78489;SDS011;67776;52.012;4.736;2023-04-06T08:49:39;36.10;;;18.85;;
78489;SDS011;67776;52.012;4.736;2023-04-06T08:52:06;33.83;;;18.57;;
78489;SDS011;67776;52.012;4.736;2023-04-06T08:54:38;37.15;;;19.88;;
78489;SDS011;67776;52.012;4.736;2023-04-06T08:57:04;38.95;;;18.85;;
78489;SDS011;67776;52.012;4.736;2023-04-06T08:59:31;34.72;;;18.35;;
78489;SDS011;67776;52.012;4.736;2023-04-06T09:01:56;36.50;;;17.75;;
78489;SDS011;67776;52.012;4.736;2023-04-06T09:04:24;36.60;;;17.73;;
78489;SDS011;67776;52.012;4.736;2023-04-06T09:06:51;38.92;;;17.90;;
78489;SDS011;67776;52.012;4.736;2023-04-06T09:09:17;38.70;;;18.85;;
78489;SDS011;67776;52.012;4.736;2023-04-06T09:11:46;39.00;;;18.40;;
78489;SDS011;67776;52.012;4.736;2023-04-06T09:14:13;39.92;;;18.48;;
78489;SDS011;67776;52.012;4.736;2023-04-06T09:16:48;35.78;;;17.38;;
78489;SDS011;67776;52.012;4.736;2023-04-06T09:28:13;20.13;;;9.82;;
78489;SDS011;67776;52.012;4.736;2023-04-06T09:31:01;17.40;;;8.38;;
78489;SDS011;67776;52.012;4.736;2023-04-06T09:33:26;18.87;;;8.83;;
78489;SDS011;67776;52.012;4.736;2023-04-06T09:35:57;19.27;;;8.40;;
78489;SDS011;67776;52.012;4.736;2023-04-06T09:38:23;18.00;;;8.85;;
78489;SDS011;67776;52.012;4.736;2023-04-06T09:41:09;19.98;;;9.20;;
78489;SDS011;67776;52.012;4.736;2023-04-06T09:43:43;16.77;;;7.50;;
78489;SDS011;67776;52.012;4.736;2023-04-06T09:46:15;17.57;;;8.57;;
78489;SDS011;67776;52.012;4.736;2023-04-06T09:48:44;19.10;;;8.63;;
78489;SDS011;67776;52.012;4.736;2023-04-06T09:51:10;18.13;;;8.30;;
78489;SDS011;67776;52.012;4.736;2023-04-06T09:56:33;15.65;;;7.40;;
78489;SDS011;67776;52.012;4.736;2023-04-06T10:08:13;13.73;;;6.90;;
78489;SDS011;67776;52.012;4.736;2023-04-06T10:10:39;15.13;;;6.65;;
78489;SDS011;67776;52.012;4.736;2023-04-06T10:13:13;13.63;;;6.70;;
78489;SDS011;67776;52.012;4.736;2023-04-06T10:15:48;13.70;;;6.90;;
78489;SDS011;67776;52.012;4.736;2023-04-06T10:18:15;14.25;;;7.38;;
78489;SDS011;67776;52.012;4.736;2023-04-06T10:20:54;12.85;;;6.40;;
78489;SDS011;67776;52.012;4.736;2023-04-06T10:26:01;14.47;;;6.63;;
78489;SDS011;67776;52.012;4.736;2023-04-06T10:28:34;14.63;;;7.07;;
78489;SDS011;67776;52.012;4.736;2023-04-06T10:31:01;15.45;;;7.70;;
78489;SDS011;67776;52.012;4.736;2023-04-06T10:33:29;16.00;;;7.53;;
78489;SDS011;67776;52.012;4.736;2023-04-06T10:35:55;15.83;;;7.83;;
78489;SDS011;67776;52.012;4.736;2023-04-06T10:38:20;15.20;;;7.87;;
78489;SDS011;67776;52.012;4.736;2023-04-06T10:40:47;15.10;;;7.38;;
78489;SDS011;67776;52.012;4.736;2023-04-06T10:43:20;15.05;;;7.80;;
78489;SDS011;67776;52.012;4.736;2023-04-06T10:45:54;16.25;;;8.15;;
78489;SDS011;67776;52.012;4.736;2023-04-06T10:48:20;15.03;;;7.97;;
78489;SDS011;67776;52.012;4.736;2023-04-06T10:50:49;16.50;;;7.97;;
78489;SDS011;67776;52.012;4.736;2023-04-06T10:53:23;17.10;;;8.30;;
78489;SDS011;67776;52.012;4.736;2023-04-06T10:55:54;18.65;;;8.20;;
78489;SDS011;67776;52.012;4.736;2023-04-06T10:58:20;16.40;;;8.63;;
78489;SDS011;67776;52.012;4.736;2023-04-06T11:00:49;18.33;;;8.68;;
78489;SDS011;67776;52.012;4.736;2023-04-06T11:03:15;17.10;;;8.55;;
78489;SDS011;67776;52.012;4.736;2023-04-06T11:05:44;21.07;;;9.33;;
78489;SDS011;67776;52.012;4.736;2023-04-06T11:08:10;18.08;;;9.18;;
78489;SDS011;67776;52.012;4.736;2023-04-06T11:10:46;18.48;;;9.40;;
78489;SDS011;67776;52.012;4.736;2023-04-06T11:13:12;19.63;;;9.80;;
78489;SDS011;67776;52.012;4.736;2023-04-06T11:15:37;18.67;;;8.53;;
78489;SDS011;67776;52.012;4.736;2023-04-06T11:18:05;19.57;;;10.03;;
78489;SDS011;67776;52.012;4.736;2023-04-06T11:20:31;18.92;;;9.52;;
78489;SDS011;67776;52.012;4.736;2023-04-06T11:22:57;17.93;;;9.00;;
78489;SDS011;67776;52.012;4.736;2023-04-06T11:25:24;20.33;;;9.80;;
78489;SDS011;67776;52.012;4.736;2023-04-06T11:27:51;21.23;;;11.07;;
78489;SDS011;67776;52.012;4.736;2023-04-06T11:30:16;20.57;;;10.33;;
78489;SDS011;67776;52.012;4.736;2023-04-06T11:32:42;22.33;;;11.00;;
78489;SDS011;67776;52.012;4.736;2023-04-06T11:35:19;21.00;;;10.68;;
78489;SDS011;67776;52.012;4.736;2023-04-06T11:37:50;21.23;;;11.07;;
78489;SDS011;67776;52.012;4.736;2023-04-06T11:40:25;22.00;;;11.00;;
78489;SDS011;67776;52.012;4.736;2023-04-06T11:42:55;22.83;;;9.85;;
78489;SDS011;67776;52.012;4.736;2023-04-06T11:45:21;20.03;;;10.07;;
78489;SDS011;67776;52.012;4.736;2023-04-06T11:47:55;25.13;;;11.90;;
78489;SDS011;67776;52.012;4.736;2023-04-06T11:50:22;23.20;;;12.18;;
78489;SDS011;67776;52.012;4.736;2023-04-06T11:52:48;21.20;;;9.93;;
78489;SDS011;67776;52.012;4.736;2023-04-06T11:55:24;23.23;;;10.20;;
78489;SDS011;67776;52.012;4.736;2023-04-06T11:57:50;20.03;;;9.77;;
78489;SDS011;67776;52.012;4.736;2023-04-06T12:00:16;19.13;;;9.98;;
78489;SDS011;67776;52.012;4.736;2023-04-06T12:02:45;20.27;;;10.60;;
78489;SDS011;67776;52.012;4.736;2023-04-06T12:05:11;20.73;;;9.95;;
78489;SDS011;67776;52.012;4.736;2023-04-06T12:07:36;20.10;;;9.90;;
78489;SDS011;67776;52.012;4.736;2023-04-06T12:10:02;18.15;;;9.38;;
78489;SDS011;67776;52.012;4.736;2023-04-06T12:12:28;17.10;;;9.00;;
78489;SDS011;67776;52.012;4.736;2023-04-06T12:14:55;17.38;;;9.05;;
78489;SDS011;67776;52.012;4.736;2023-04-06T12:17:20;17.02;;;8.73;;
78489;SDS011;67776;52.012;4.736;2023-04-06T12:19:46;20.47;;;10.13;;
78489;SDS011;67776;52.012;4.736;2023-04-06T12:22:11;20.80;;;9.80;;
78489;SDS011;67776;52.012;4.736;2023-04-06T12:24:37;19.73;;;9.57;;
78489;SDS011;67776;52.012;4.736;2023-04-06T12:27:02;21.53;;;10.40;;
78489;SDS011;67776;52.012;4.736;2023-04-06T12:29:28;20.40;;;9.93;;
78489;SDS011;67776;52.012;4.736;2023-04-06T12:31:53;19.80;;;9.87;;
78489;SDS011;67776;52.012;4.736;2023-04-06T12:34:18;20.40;;;10.60;;
78489;SDS011;67776;52.012;4.736;2023-04-06T12:36:44;22.33;;;10.75;;
78489;SDS011;67776;52.012;4.736;2023-04-06T12:39:09;22.97;;;10.87;;
78489;SDS011;67776;52.012;4.736;2023-04-06T12:41:36;22.98;;;11.95;;
78489;SDS011;67776;52.012;4.736;2023-04-06T12:44:01;22.90;;;11.60;;
78489;SDS011;67776;52.012;4.736;2023-04-06T12:46:27;21.53;;;12.03;;
78489;SDS011;67776;52.012;4.736;2023-04-06T12:48:54;23.50;;;11.15;;
78489;SDS011;67776;52.012;4.736;2023-04-06T12:51:20;22.52;;;11.35;;
78489;SDS011;67776;52.012;4.736;2023-04-06T12:53:46;23.50;;;11.88;;
78489;SDS011;67776;52.012;4.736;2023-04-06T12:56:16;20.50;;;11.47;;
78489;SDS011;67776;52.012;4.736;2023-04-06T12:58:42;20.10;;;9.30;;
78489;SDS011;67776;52.012;4.736;2023-04-06T13:01:08;20.10;;;10.47;;
78489;SDS011;67776;52.012;4.736;2023-04-06T13:03:34;23.87;;;11.67;;
78489;SDS011;67776;52.012;4.736;2023-04-06T13:06:00;23.65;;;11.80;;
78489;SDS011;67776;52.012;4.736;2023-04-06T13:08:26;21.05;;;11.23;;
78489;SDS011;67776;52.012;4.736;2023-04-06T13:10:52;21.10;;;11.03;;
78489;SDS011;67776;52.012;4.736;2023-04-06T13:13:21;24.70;;;12.13;;
78489;SDS011;67776;52.012;4.736;2023-04-06T13:15:48;24.23;;;12.23;;
78489;SDS011;67776;52.012;4.736;2023-04-06T13:18:13;25.20;;;13.10;;
78489;SDS011;67776;52.012;4.736;2023-04-06T13:20:39;28.77;;;14.63;;
78489;SDS011;67776;52.012;4.736;2023-04-06T13:23:04;25.17;;;12.27;;
78489;SDS011;67776;52.012;4.736;2023-04-06T13:25:30;28.63;;;13.80;;
78489;SDS011;67776;52.012;4.736;2023-04-06T13:27:56;26.13;;;14.20;;
78489;SDS011;67776;52.012;4.736;2023-04-06T13:30:22;29.47;;;14.63;;
78489;SDS011;67776;52.012;4.736;2023-04-06T13:32:47;28.83;;;14.50;;
78489;SDS011;67776;52.012;4.736;2023-04-06T13:35:13;28.87;;;14.70;;
78489;SDS011;67776;52.012;4.736;2023-04-06T13:37:38;29.92;;;14.48;;
78489;SDS011;67776;52.012;4.736;2023-04-06T13:40:04;27.13;;;13.73;;
78489;SDS011;67776;52.012;4.736;2023-04-06T13:42:30;25.58;;;13.07;;
78489;SDS011;67776;52.012;4.736;2023-04-06T13:44:56;27.80;;;13.93;;
78489;SDS011;67776;52.012;4.736;2023-04-06T13:47:21;29.63;;;15.37;;
78489;SDS011;67776;52.012;4.736;2023-04-06T13:49:47;34.08;;;15.20;;
78489;SDS011;67776;52.012;4.736;2023-04-06T13:52:15;28.48;;;13.40;;
78489;SDS011;67776;52.012;4.736;2023-04-06T13:54:41;27.93;;;13.50;;
78489;SDS011;67776;52.012;4.736;2023-04-06T13:57:06;26.53;;;12.67;;
78489;SDS011;67776;52.012;4.736;2023-04-06T13:59:33;29.10;;;13.85;;
78489;SDS011;67776;52.012;4.736;2023-04-06T14:02:05;29.10;;;13.97;;
78489;SDS011;67776;52.012;4.736;2023-04-06T14:04:31;28.40;;;13.07;;
78489;SDS011;67776;52.012;4.736;2023-04-06T14:06:57;26.35;;;13.30;;
78489;SDS011;67776;52.012;4.736;2023-04-06T14:09:23;23.73;;;11.63;;
78489;SDS011;67776;52.012;4.736;2023-04-06T14:11:49;27.93;;;12.90;;
78489;SDS011;67776;52.012;4.736;2023-04-06T14:14:14;30.65;;;13.93;;
78489;SDS011;67776;52.012;4.736;2023-04-06T14:16:40;24.13;;;12.80;;
78489;SDS011;67776;52.012;4.736;2023-04-06T14:19:08;28.70;;;14.20;;
78489;SDS011;67776;52.012;4.736;2023-04-06T14:21:35;27.98;;;13.40;;
78489;SDS011;67776;52.012;4.736;2023-04-06T14:24:00;31.27;;;14.27;;
78489;SDS011;67776;52.012;4.736;2023-04-06T14:26:26;29.77;;;14.38;;
78489;SDS011;67776;52.012;4.736;2023-04-06T14:28:52;29.23;;;14.27;;
78489;SDS011;67776;52.012;4.736;2023-04-06T14:31:17;26.65;;;14.25;;
78489;SDS011;67776;52.012;4.736;2023-04-06T14:33:43;33.37;;;15.40;;
78489;SDS011;67776;52.012;4.736;2023-04-06T14:36:08;28.60;;;14.57;;
78489;SDS011;67776;52.012;4.736;2023-04-06T14:38:34;24.93;;;13.00;;
78489;SDS011;67776;52.012;4.736;2023-04-06T14:41:00;31.02;;;14.35;;
78489;SDS011;67776;52.012;4.736;2023-04-06T14:43:25;27.33;;;14.23;;
78489;SDS011;67776;52.012;4.736;2023-04-06T14:45:51;27.50;;;14.30;;
78489;SDS011;67776;52.012;4.736;2023-04-06T14:48:17;24.80;;;12.30;;
78489;SDS011;67776;52.012;4.736;2023-04-06T14:50:53;29.63;;;13.15;;
78489;SDS011;67776;52.012;4.736;2023-04-06T14:53:21;22.60;;;11.57;;
78489;SDS011;67776;52.012;4.736;2023-04-06T14:55:47;27.55;;;14.15;;
78489;SDS011;67776;52.012;4.736;2023-04-06T14:58:12;24.70;;;12.70;;
78489;SDS011;67776;52.012;4.736;2023-04-06T15:00:38;27.80;;;14.93;;